Time;durP1;ratioP1;P1;durP2;ratioP2;P2;SDS_P1;SDS_P2;PMS_P1;PMS_P2;Temp;Humidity;BMP_temperature;BMP_pressure;BME280_temperature;BME280_humidity;BME280_pressure;Samples;Min_cycle;Max_cycle;Signal;HPM_P1;HPM_P2
2023/01/07 00:01:36;;;;;;;11.90;8.93;;;;;;;9.46;100.00;101612.34;5342303;27;20036;-82
2023/01/07 00:04:11;;;;;;;12.95;10.05;;;;;;;9.48;100.00;101608.72;5346899;27;20081;-81
2023/01/07 00:06:43;;;;;;;11.60;9.70;;;;;;;9.47;100.00;101607.88;5318410;28;20040;-81
2023/01/07 00:09:15;;;;;;;11.18;9.77;;;;;;;9.46;100.00;101598.19;5327269;27;20027;-81
2023/01/07 00:11:46;;;;;;;10.93;9.68;;;;;;;9.44;100.00;101603.63;5326232;28;20487;-81
2023/01/07 00:14:18;;;;;;;11.85;9.95;;;;;;;9.43;100.00;101595.75;5333880;27;20020;-82
2023/01/07 00:16:49;;;;;;;15.02;10.45;;;;;;;9.46;100.00;101593.69;5346794;27;20012;-81
2023/01/07 00:19:21;;;;;;;12.95;11.05;;;;;;;9.49;100.00;101592.63;5343385;27;20193;-81
2023/01/07 00:21:52;;;;;;;13.40;11.07;;;;;;;9.48;100.00;101587.41;5340750;27;20028;-81
2023/01/07 00:24:23;;;;;;;13.02;11.13;;;;;;;9.50;100.00;101588.97;5322972;28;20058;-81
2023/01/07 00:26:55;;;;;;;14.45;11.27;;;;;;;9.52;100.00;101592.41;5326404;28;20036;-81
2023/01/07 00:29:26;;;;;;;13.57;12.02;;;;;;;9.52;100.00;101587.06;5330243;27;20012;-80
2023/01/07 00:31:57;;;;;;;14.75;11.80;;;;;;;9.58;100.00;101589.25;5346951;27;20035;-81
2023/01/07 00:34:28;;;;;;;15.25;12.88;;;;;;;9.54;100.00;101582.47;5316224;27;20081;-81
2023/01/07 00:37:48;;;;;;;16.17;12.43;;;;;;;9.53;100.00;101572.78;5342655;27;20068;-81
2023/01/07 00:39:51;;;;;;;14.60;10.73;;;;;;;9.48;100.00;101566.94;5333073;27;20058;-81
2023/01/07 00:45:12;;;;;;;18.45;13.73;;;;;;;9.48;100.00;101568.78;5339947;27;20035;-81
2023/01/07 00:47:43;;;;;;;14.07;12.57;;;;;;;9.49;100.00;101568.66;5346762;27;20031;-81
2023/01/07 00:50:15;;;;;;;18.40;14.57;;;;;;;9.54;100.00;101566.50;5344675;27;20023;-81
2023/01/07 00:52:46;;;;;;;19.90;14.73;;;;;;;9.54;100.00;101561.16;5343076;27;20490;-81
2023/01/07 00:55:18;;;;;;;17.02;13.68;;;;;;;9.59;100.00;101561.66;5341786;27;20035;-81
2023/01/07 00:57:49;;;;;;;16.70;13.38;;;;;;;9.63;100.00;101559.63;5339397;27;20080;-81
2023/01/07 01:00:22;;;;;;;17.88;12.55;;;;;;;9.65;100.00;101555.84;5315777;27;20392;-81
2023/01/07 01:02:54;;;;;;;17.15;12.52;;;;;;;9.61;100.00;101540.25;5342577;27;20024;-80
2023/01/07 01:05:25;;;;;;;13.73;12.27;;;;;;;9.57;100.00;101536.09;5341657;27;20039;-81
2023/01/07 01:07:56;;;;;;;15.18;11.55;;;;;;;9.56;100.00;101545.91;5318409;27;20414;-81
2023/01/07 01:10:28;;;;;;;14.88;11.40;;;;;;;9.55;100.00;101522.06;5322378;27;20039;-81
2023/01/07 01:13:00;;;;;;;14.82;10.88;;;;;;;9.54;100.00;101537.19;5339518;27;20020;-81
2023/01/07 01:15:31;;;;;;;12.38;10.90;;;;;;;9.52;100.00;101531.16;5334777;27;20480;-81
2023/01/07 01:18:03;;;;;;;12.85;10.05;;;;;;;9.49;100.00;101535.88;5336838;27;20099;-81
2023/01/07 01:20:34;;;;;;;12.60;10.52;;;;;;;9.48;100.00;101526.16;5341763;27;20143;-80
2023/01/07 01:23:06;;;;;;;14.20;10.63;;;;;;;9.47;100.00;101517.34;5336474;27;20032;-81
2023/01/07 01:25:37;;;;;;;13.57;10.95;;;;;;;9.45;100.00;101514.78;5337216;27;20024;-81
2023/01/07 01:28:09;;;;;;;12.05;10.10;;;;;;;9.48;100.00;101518.19;5340404;27;20459;-82
2023/01/07 01:30:40;;;;;;;10.48;9.30;;;;;;;9.43;100.00;101510.53;5337867;27;20513;-82
2023/01/07 01:33:11;;;;;;;13.30;9.55;;;;;;;9.45;100.00;101509.47;5336571;27;20722;-81
2023/01/07 01:35:43;;;;;;;13.23;10.13;;;;;;;9.40;100.00;101498.31;5339216;27;21149;-81
2023/01/07 01:38:14;;;;;;;12.70;9.05;;;;;;;9.43;100.00;101507.88;5340107;27;20379;-82
2023/01/07 01:40:45;;;;;;;14.07;10.10;;;;;;;9.43;100.00;101523.84;5322744;27;20027;-82
2023/01/07 01:43:27;;;;;;;15.43;9.00;;;;;;;9.45;100.00;101508.63;5338886;27;20772;-81
2023/01/07 01:46:09;;;;;;;11.05;9.25;;;;;;;9.44;100.00;101506.91;5330852;27;20094;-81
2023/01/07 01:48:46;;;;;;;11.88;9.10;;;;;;;9.45;100.00;101508.63;5336791;27;20504;-81
2023/01/07 01:51:23;;;;;;;11.07;8.65;;;;;;;9.42;100.00;101517.69;5340120;27;20035;-82
2023/01/07 01:53:55;;;;;;;11.70;8.60;;;;;;;9.39;100.00;101506.44;5332663;27;20452;-81
2023/01/07 01:56:31;;;;;;;10.10;8.07;;;;;;;9.39;100.00;101517.06;5339752;27;20442;-82
2023/01/07 01:59:10;;;;;;;11.93;8.90;;;;;;;9.38;100.00;101510.91;5337761;27;20028;-80
2023/01/07 02:01:41;;;;;;;12.57;9.35;;;;;;;9.32;100.00;101506.03;5337208;27;20035;-81
2023/01/07 02:04:17;;;;;;;11.68;7.95;;;;;;;9.37;100.00;101508.38;5337794;27;20047;-81
2023/01/07 02:06:54;;;;;;;11.30;8.18;;;;;;;9.37;100.00;101508.38;5312310;27;20837;-80
2023/01/07 02:09:26;;;;;;;10.55;7.90;;;;;;;9.40;100.00;101511.63;5338907;27;20023;-81
2023/01/07 02:12:36;;;;;;;11.02;7.97;;;;;;;9.42;100.00;101508.84;5340235;27;20053;-80
2023/01/07 02:15:12;;;;;;;9.45;8.25;;;;;;;9.40;100.00;101510.78;5337116;27;20082;-82
2023/01/07 02:18:02;;;;;;;13.60;8.10;;;;;;;9.40;100.00;101497.50;5316467;27;20398;-81
2023/01/07 02:21:02;;;;;;;13.27;8.07;;;;;;;9.38;100.00;101510.03;5336943;27;20047;-81
2023/01/07 02:23:50;;;;;;;8.95;7.85;;;;;;;9.36;100.00;101501.31;5328870;27;20046;-81
2023/01/07 02:26:46;;;;;;;10.95;7.88;;;;;;;9.34;100.00;101508.59;5337953;27;20130;-81
2023/01/07 02:29:24;;;;;;;9.55;7.15;;;;;;;9.33;100.00;101501.59;5338082;27;20035;-80
2023/01/07 02:32:16;;;;;;;8.38;7.18;;;;;;;9.35;100.00;101504.97;5334844;27;20029;-81
2023/01/07 02:34:58;;;;;;;10.15;6.50;;;;;;;9.27;100.00;101500.22;5313717;27;20499;-81
2023/01/07 02:37:53;;;;;;;11.70;7.15;;;;;;;9.25;100.00;101505.66;5331549;27;20499;-81
2023/01/07 02:40:47;;;;;;;7.57;6.78;;;;;;;9.29;100.00;101498.28;5306582;27;20089;-80
2023/01/07 02:43:33;;;;;;;8.55;6.57;;;;;;;9.23;100.00;101499.63;5313530;27;20028;-81
2023/01/07 02:46:15;;;;;;;8.13;6.88;;;;;;;9.25;100.00;101496.84;5335698;27;20077;-81
2023/01/07 02:48:47;;;;;;;10.65;6.70;;;;;;;9.23;100.00;101488.13;5339477;27;20039;-81
2023/01/07 02:51:18;;;;;;;10.35;6.80;;;;;;;9.29;100.00;101492.97;5333870;27;20024;-81
2023/01/07 02:53:50;;;;;;;9.27;6.80;;;;;;;9.36;100.00;101491.56;5339047;27;20024;-80
2023/01/07 02:56:36;;;;;;;7.70;6.97;;;;;;;9.43;100.00;101490.09;5323340;27;20023;-80
2023/01/07 02:59:45;;;;;;;12.70;6.65;;;;;;;9.53;100.00;101492.88;5328144;27;20055;-81
2023/01/07 03:02:38;;;;;;;9.80;5.90;;;;;;;9.63;100.00;101483.22;5342531;27;20027;-82
2023/01/07 03:05:16;;;;;;;10.80;6.30;;;;;;;9.66;100.00;101484.81;5338386;27;20135;-81
2023/01/07 03:07:56;;;;;;;7.90;5.68;;;;;;;9.69;100.00;101484.53;5340915;27;20036;-81
2023/01/07 03:10:51;;;;;;;6.57;5.35;;;;;;;9.77;100.00;101476.78;5337529;27;20112;-81
2023/01/07 03:13:28;;;;;;;7.57;6.00;;;;;;;9.77;100.00;101482.13;5338391;27;20028;-81
2023/01/07 03:16:07;;;;;;;7.07;4.43;;;;;;;9.83;100.00;101464.78;5336416;27;20028;-80
2023/01/07 03:18:44;;;;;;;5.80;4.72;;;;;;;9.81;100.00;101462.25;5336264;27;20043;-81
2023/01/07 03:21:20;;;;;;;6.80;4.63;;;;;;;9.82;100.00;101455.97;5344201;27;20488;-81
2023/01/07 03:23:55;;;;;;;7.47;4.47;;;;;;;9.81;100.00;101451.59;5342678;27;20448;-81
2023/01/07 03:26:31;;;;;;;5.15;4.20;;;;;;;9.83;100.00;101462.13;5342218;27;20033;-81
2023/01/07 03:29:06;;;;;;;6.00;4.13;;;;;;;9.80;100.00;101441.91;5312990;27;20491;-81
2023/01/07 03:31:45;;;;;;;10.63;4.88;;;;;;;9.84;100.00;101447.84;5339189;27;20035;-81
2023/01/07 03:34:21;;;;;;;7.25;3.92;;;;;;;9.86;100.00;101445.91;5337414;27;20023;-81
2023/01/07 03:36:57;;;;;;;4.40;3.75;;;;;;;9.87;100.00;101444.06;5344906;27;20057;-82
2023/01/07 03:39:31;;;;;;;5.30;4.57;;;;;;;9.88;100.00;101438.63;5345538;27;20046;-81
2023/01/07 03:42:49;;;;;;;7.03;4.05;;;;;;;9.91;100.00;101441.06;5338798;27;20035;-81
2023/01/07 03:45:02;;;;;;;5.53;4.03;;;;;;;9.89;100.00;101437.66;5329790;27;20028;-81
2023/01/07 03:47:34;;;;;;;5.07;3.83;;;;;;;9.94;100.00;101434.63;5338358;27;20047;-81
2023/01/07 03:50:06;;;;;;;7.80;4.15;;;;;;;9.94;100.00;101429.28;5344052;27;20483;-80
2023/01/07 03:52:37;;;;;;;5.20;3.70;;;;;;;9.92;100.00;101426.78;5336890;27;20054;-80
2023/01/07 03:55:09;;;;;;;5.97;3.70;;;;;;;9.95;100.00;101425.66;5318312;27;20099;-80
2023/01/07 03:57:41;;;;;;;6.95;3.90;;;;;;;9.91;100.00;101419.72;5351710;27;20034;-80
2023/01/07 04:00:14;;;;;;;5.20;3.47;;;;;;;9.91;100.00;101425.06;5358575;27;35101;-79
2023/01/07 04:02:45;;;;;;;5.90;3.60;;;;;;;9.94;100.00;101423.97;5362041;27;20054;-80
2023/01/07 04:05:16;;;;;;;7.30;3.95;;;;;;;9.95;100.00;101413.19;5364712;27;20452;-79
2023/01/07 04:07:48;;;;;;;4.30;3.33;;;;;;;9.96;100.00;101403.38;5355367;27;20043;-81
2023/01/07 04:10:19;;;;;;;6.93;3.38;;;;;;;9.95;100.00;101404.34;5357056;27;20020;-79
2023/01/07 04:12:50;;;;;;;3.80;3.40;;;;;;;9.94;100.00;101405.31;5364911;27;20027;-80
2023/01/07 04:15:22;;;;;;;4.85;3.53;;;;;;;9.96;100.00;101403.38;5355713;27;20049;-81
2023/01/07 04:17:53;;;;;;;6.47;3.20;;;;;;;9.99;100.00;101398.66;5344493;27;20034;-82
2023/01/07 04:20:24;;;;;;;4.47;3.10;;;;;;;9.97;100.00;101389.06;5347800;27;20043;-82
2023/01/07 04:22:56;;;;;;;5.45;3.70;;;;;;;9.97;100.00;101389.06;5344766;27;20024;-81
2023/01/07 04:25:27;;;;;;;4.00;3.30;;;;;;;9.91;100.00;101378.94;5346859;27;20077;-81
2023/01/07 04:27:58;;;;;;;5.38;3.20;;;;;;;9.87;100.00;101375.66;5322945;27;20125;-82
2023/01/07 04:30:29;;;;;;;4.07;3.25;;;;;;;9.79;100.00;101372.78;5333523;27;20028;-81
2023/01/07 04:33:02;;;;;;;4.43;2.83;;;;;;;9.72;100.00;101374.25;5349735;27;20120;-80
2023/01/07 04:35:33;;;;;;;5.60;3.13;;;;;;;9.74;100.00;101372.28;5357337;27;20020;-81
2023/01/07 04:38:05;;;;;;;5.68;3.00;;;;;;;9.73;100.00;101367.91;5348945;27;20016;-81
2023/01/07 04:40:36;;;;;;;5.25;3.42;;;;;;;9.70;100.00;101368.19;5342992;27;20104;-80
2023/01/07 04:43:08;;;;;;;5.95;3.20;;;;;;;9.70;100.00;101362.88;5337934;27;20446;-80
2023/01/07 04:45:39;;;;;;;5.05;3.40;;;;;;;9.62;100.00;101358.13;5335698;27;20055;-81
2023/01/07 04:48:11;;;;;;;4.50;3.10;;;;;;;9.59;100.00;101353.06;5342683;27;20126;-81
2023/01/07 04:50:42;;;;;;;5.15;3.30;;;;;;;9.59;100.00;101350.38;5345656;27;20353;-81
2023/01/07 04:53:14;;;;;;;5.65;3.10;;;;;;;9.57;100.00;101350.53;5345291;27;20123;-81
2023/01/07 04:55:45;;;;;;;6.55;3.17;;;;;;;9.53;100.00;101340.25;5346194;27;20058;-81
2023/01/07 04:58:16;;;;;;;3.35;2.60;;;;;;;9.57;100.00;101357.66;5342309;27;20026;-81
2023/01/07 05:00:48;;;;;;;4.45;2.60;;;;;;;9.49;100.00;101342.31;5337380;27;20024;-81
2023/01/07 05:03:19;;;;;;;4.82;2.58;;;;;;;9.51;100.00;101350.19;5315822;27;20031;-81
2023/01/07 05:05:50;;;;;;;4.72;2.83;;;;;;;9.48;100.00;101348.59;5341807;27;20688;-80
2023/01/07 05:08:22;;;;;;;4.80;2.70;;;;;;;9.45;100.00;101348.88;5343333;27;20473;-81
2023/01/07 05:10:53;;;;;;;4.65;2.72;;;;;;;9.42;100.00;101346.44;5339128;27;20057;-81
2023/01/07 05:13:24;;;;;;;4.05;2.85;;;;;;;9.43;100.00;101346.31;5335048;27;20337;-81
2023/01/07 05:15:56;;;;;;;7.18;2.95;;;;;;;9.41;100.00;101334.09;5330329;27;20384;-80
2023/01/07 05:18:28;;;;;;;3.53;2.70;;;;;;;9.45;100.00;101335.56;5332733;27;20039;-81
2023/01/07 05:20:59;;;;;;;4.03;2.63;;;;;;;9.41;100.00;101329.63;5338791;27;20028;-82
2023/01/07 05:23:30;;;;;;;4.57;2.80;;;;;;;9.37;100.00;101328.16;5340192;27;20043;-81
2023/01/07 05:26:02;;;;;;;4.35;2.42;;;;;;;9.37;100.00;101336.13;5333522;27;20404;-81
2023/01/07 05:28:34;;;;;;;5.43;2.53;;;;;;;9.40;100.00;101322.59;5335107;27;20039;-81
2023/01/07 05:31:05;;;;;;;6.35;2.90;;;;;;;9.40;100.00;101319.09;5331811;27;20024;-81
2023/01/07 05:33:36;;;;;;;3.35;2.72;;;;;;;9.41;100.00;101308.31;5341884;27;20030;-81
2023/01/07 05:36:08;;;;;;;3.22;2.30;;;;;;;9.45;100.00;101323.06;5342948;27;20027;-80
2023/01/07 05:38:39;;;;;;;5.22;1.95;;;;;;;9.48;100.00;101326.44;5343617;27;20085;-81
2023/01/07 05:41:16;;;;;;;3.25;2.15;;;;;;;9.53;100.00;101322.44;5338770;27;20023;-83
2023/01/07 05:43:48;;;;;;;3.50;2.40;;;;;;;9.58;100.00;101322.91;5336703;27;20027;-81
2023/01/07 05:46:19;;;;;;;2.47;2.28;;;;;;;9.64;100.00;101326.91;5339957;27;20479;-81
2023/01/07 05:48:53;;;;;;;4.88;2.33;;;;;;;9.64;100.00;101314.44;5333552;27;20099;-81
2023/01/07 05:51:24;;;;;;;3.17;2.00;;;;;;;9.69;100.00;101307.88;5340976;27;20031;-81
2023/01/07 05:53:55;;;;;;;4.20;2.20;;;;;;;9.71;100.00;101321.91;5341554;27;20024;-81
2023/01/07 05:56:27;;;;;;;5.40;2.10;;;;;;;9.70;100.00;101307.75;5340204;27;20028;-81
2023/01/07 05:58:58;;;;;;;3.85;1.83;;;;;;;9.74;100.00;101301.19;5338797;27;20032;-81
2023/01/07 06:01:29;;;;;;;1.98;1.70;;;;;;;9.78;100.00;101302.66;5336488;27;35424;-81
2023/01/07 06:04:01;;;;;;;3.42;2.20;;;;;;;9.80;100.00;101294.53;5317789;27;20039;-80
2023/01/07 06:06:32;;;;;;;4.50;1.90;;;;;;;9.80;100.00;101324.69;5335769;27;20093;-81
2023/01/07 06:09:03;;;;;;;3.50;2.00;;;;;;;9.82;100.00;101304.09;5319498;27;20168;-81
2023/01/07 06:11:35;;;;;;;3.78;1.80;;;;;;;9.84;100.00;101301.31;5340718;27;20475;-81
2023/01/07 06:14:06;;;;;;;4.07;1.98;;;;;;;9.84;100.00;101304.81;5337934;27;20028;-81
2023/01/07 06:16:37;;;;;;;2.83;1.80;;;;;;;9.83;100.00;101286.28;5338307;27;20027;-81
2023/01/07 06:19:09;;;;;;;2.25;1.80;;;;;;;9.82;100.00;101287.28;5341504;27;20075;-81
2023/01/07 06:21:40;;;;;;;3.28;1.80;;;;;;;9.84;100.00;101282.66;5319906;27;20104;-81
2023/01/07 06:24:12;;;;;;;4.88;1.50;;;;;;;9.85;100.00;101279.00;5341103;27;20024;-81
2023/01/07 06:26:43;;;;;;;1.77;1.60;;;;;;;9.86;100.00;101279.88;5339693;27;20043;-81
2023/01/07 06:29:14;;;;;;;3.35;1.40;;;;;;;9.84;100.00;101274.66;5339047;27;20024;-81
2023/01/07 06:31:46;;;;;;;3.70;1.60;;;;;;;9.84;100.00;101269.34;5336818;27;20034;-81
2023/01/07 06:34:19;;;;;;;1.73;1.40;;;;;;;9.82;100.00;101261.47;5340091;27;20054;-81
2023/01/07 06:36:51;;;;;;;2.83;1.40;;;;;;;9.84;100.00;101266.66;5339528;27;20384;-81
2023/01/07 06:39:22;;;;;;;3.50;1.48;;;;;;;9.81;100.00;101259.75;5342514;27;20031;-81
2023/01/07 06:41:53;;;;;;;2.78;1.63;;;;;;;9.81;100.00;101256.25;5342428;27;20028;-81
2023/01/07 06:44:25;;;;;;;2.13;1.20;;;;;;;9.82;100.00;101258.81;5341757;27;20038;-81
2023/01/07 06:46:56;;;;;;;3.70;1.45;;;;;;;9.82;100.00;101253.47;5342662;27;20479;-81
2023/01/07 06:49:27;;;;;;;2.70;1.27;;;;;;;9.86;100.00;101250.56;5344676;27;20570;-81
2023/01/07 06:51:58;;;;;;;2.92;1.20;;;;;;;9.83;100.00;101252.50;5343567;27;20368;-80
2023/01/07 06:54:30;;;;;;;2.40;1.10;;;;;;;9.88;100.00;101253.94;5344558;27;20027;-81
2023/01/07 06:57:01;;;;;;;2.00;1.10;;;;;;;9.83;100.00;101252.50;5341054;27;20023;-81
2023/01/07 06:59:32;;;;;;;1.00;0.95;;;;;;;9.85;100.00;101255.03;5339762;27;20140;-81
2023/01/07 07:02:04;;;;;;;2.03;1.50;;;;;;;9.83;100.00;101252.50;5337345;27;20028;-81
2023/01/07 07:04:35;;;;;;;1.08;0.80;;;;;;;9.86;100.00;101250.56;5341162;27;20023;-81
2023/01/07 07:07:06;;;;;;;1.70;1.20;;;;;;;9.85;100.00;101244.38;5344406;27;20036;-81
2023/01/07 07:09:38;;;;;;;2.25;1.23;;;;;;;9.83;100.00;101246.31;5326820;27;20106;-81
2023/01/07 07:12:10;;;;;;;4.32;1.25;;;;;;;9.82;100.00;101234.00;5339559;27;20031;-81
2023/01/07 07:14:41;;;;;;;3.58;1.30;;;;;;;9.81;100.00;101233.13;5343991;27;20059;-80
2023/01/07 07:17:12;;;;;;;1.98;1.20;;;;;;;9.77;100.00;101236.19;5345733;27;20077;-81
2023/01/07 07:19:44;;;;;;;2.08;0.98;;;;;;;9.76;100.00;101221.16;5343185;27;20035;-81
2023/01/07 07:22:15;;;;;;;1.92;1.00;;;;;;;9.74;100.00;101223.13;5337840;27;20024;-81
2023/01/07 07:24:46;;;;;;;1.20;0.93;;;;;;;9.71;100.00;101213.56;5344134;27;20393;-81
2023/01/07 07:27:18;;;;;;;1.25;1.00;;;;;;;9.69;100.00;101220.81;5340792;27;20162;-81
2023/01/07 07:29:49;;;;;;;2.13;1.15;;;;;;;9.67;100.00;101225.44;5344736;27;20031;-81
2023/01/07 07:32:21;;;;;;;2.17;1.33;;;;;;;9.65;100.00;101220.22;5339190;27;20023;-81
2023/01/07 07:34:54;;;;;;;2.22;1.20;;;;;;;9.67;100.00;101224.59;5340690;27;20019;-81
2023/01/07 07:37:25;;;;;;;2.10;1.15;;;;;;;9.64;100.00;101220.34;5341851;27;20480;-81
2023/01/07 07:39:56;;;;;;;1.67;1.17;;;;;;;9.67;100.00;101221.94;5321606;27;20039;-81
2023/01/07 07:42:28;;;;;;;2.83;1.20;;;;;;;9.64;100.00;101217.69;5339349;27;30487;-81
2023/01/07 07:44:59;;;;;;;2.20;1.20;;;;;;;9.68;100.00;101205.84;5341621;27;20114;-81
2023/01/07 07:47:31;;;;;;;1.48;1.10;;;;;;;9.68;100.00;101205.84;5342161;27;20039;-81
2023/01/07 07:50:02;;;;;;;2.08;1.20;;;;;;;9.69;100.00;101204.00;5342758;27;20016;-81
2023/01/07 07:52:34;;;;;;;3.20;1.30;;;;;;;9.68;100.00;101203.16;5339425;27;20024;-81
2023/01/07 07:55:05;;;;;;;3.40;1.20;;;;;;;9.69;100.00;101202.19;5336783;27;20368;-81
2023/01/07 07:57:36;;;;;;;1.95;1.10;;;;;;;9.71;100.00;101196.72;5343384;27;20057;-81
2023/01/07 08:00:08;;;;;;;1.63;1.17;;;;;;;9.69;100.00;101199.50;5322451;27;20023;-80
2023/01/07 08:02:40;;;;;;;2.10;1.20;;;;;;;9.68;100.00;101189.84;5317067;27;20031;-81
2023/01/07 08:05:11;;;;;;;2.20;1.15;;;;;;;9.69;100.00;101190.69;5333899;27;20060;-81
2023/01/07 08:07:42;;;;;;;1.13;1.00;;;;;;;9.67;100.00;101192.63;5346297;27;20134;-81
2023/01/07 08:10:14;;;;;;;3.83;1.35;;;;;;;9.71;100.00;101186.94;5336203;27;20051;-80
2023/01/07 08:12:45;;;;;;;1.63;1.45;;;;;;;9.72;100.00;101175.28;5341773;27;20023;-81
2023/01/07 08:15:17;;;;;;;1.77;1.27;;;;;;;9.76;100.00;101184.69;5341039;27;20062;-80
2023/01/07 08:17:56;;;;;;;1.67;0.90;;;;;;;9.84;100.00;101181.41;5339999;27;20038;-81
2023/01/07 08:20:28;;;;;;;2.00;1.13;;;;;;;9.82;100.00;101184.19;5335068;27;20105;-81
2023/01/07 08:23:01;;;;;;;2.63;1.20;;;;;;;9.87;100.00;101175.84;5338138;27;20019;-81
2023/01/07 08:25:33;;;;;;;2.88;0.88;;;;;;;9.89;100.00;101171.22;5339344;27;20170;-81
2023/01/07 08:28:05;;;;;;;2.35;1.23;;;;;;;9.96;100.00;101163.53;5337051;27;20030;-81
2023/01/07 08:30:37;;;;;;;3.33;1.00;;;;;;;10.00;100.00;101170.28;5330219;27;20023;-80
2023/01/07 08:33:08;;;;;;;1.75;1.08;;;;;;;10.01;100.00;101164.84;5339023;27;20104;-80
2023/01/07 08:35:39;;;;;;;2.95;1.20;;;;;;;10.05;100.00;101160.09;5339142;27;20068;-80
2023/01/07 08:38:11;;;;;;;1.73;1.10;;;;;;;10.09;100.00;101166.84;5340122;27;20318;-81
2023/01/07 08:40:43;;;;;;;1.73;1.02;;;;;;;10.13;100.00;101170.09;5332922;27;20024;-81
2023/01/07 08:43:14;;;;;;;1.00;0.90;;;;;;;10.14;100.00;101159.28;5329405;27;20470;-81
2023/01/07 08:45:50;;;;;;;1.25;0.90;;;;;;;10.21;100.00;101154.28;5341559;27;20020;-80
2023/01/07 08:48:21;;;;;;;2.47;1.23;;;;;;;10.19;100.00;101153.56;5344720;27;20494;-80
2023/01/07 08:50:53;;;;;;;2.15;1.00;;;;;;;10.22;100.00;101154.16;5346321;27;20129;-80
2023/01/07 08:53:25;;;;;;;2.75;1.58;;;;;;;10.22;100.00;101159.50;5347020;27;20022;-80
2023/01/07 08:55:56;;;;;;;1.58;1.00;;;;;;;10.25;100.00;101146.88;5344615;27;20028;-80
2023/01/07 08:58:27;;;;;;;1.20;1.00;;;;;;;10.30;100.00;101145.47;5343312;27;20069;-81
2023/01/07 09:01:04;;;;;;;3.97;0.95;;;;;;;10.31;100.00;101151.66;5343691;27;20039;-81
2023/01/07 09:03:36;;;;;;;;;;;;;;;10.35;100.00;101148.63;5342003;27;20040;-80
2023/01/07 09:06:08;;;;;;;3.33;1.05;;;;;;;10.33;100.00;101155.09;5335106;27;19961;-81
2023/01/07 09:08:39;;;;;;;1.13;1.00;;;;;;;10.33;100.00;101145.25;5341278;27;20414;-80
2023/01/07 09:11:10;;;;;;;1.17;0.73;;;;;;;10.36;100.00;101138.78;5326953;27;20016;-81
2023/01/07 09:13:42;;;;;;;1.00;0.85;;;;;;;10.36;100.00;101137.00;5344316;27;20038;-81
2023/01/07 09:16:13;;;;;;;1.35;1.15;;;;;;;10.45;100.00;101138.00;5345638;27;20034;-81
2023/01/07 09:18:44;;;;;;;1.20;0.90;;;;;;;10.47;100.00;101128.06;5328174;27;20046;-81
2023/01/07 09:21:16;;;;;;;1.20;0.80;;;;;;;10.51;100.00;101136.63;5345935;27;20380;-81
2023/01/07 09:23:47;;;;;;;1.25;0.80;;;;;;;10.51;100.00;101123.28;5346127;27;20070;-81
2023/01/07 09:26:18;;;;;;;2.95;1.30;;;;;;;10.55;100.00;101125.56;5346358;27;20484;-81
2023/01/07 09:28:50;;;;;;;0.98;0.80;;;;;;;10.59;100.00;101120.78;5344700;27;20028;-81
2023/01/07 09:31:21;;;;;;;2.72;1.20;;;;;;;10.63;100.00;101114.19;5324152;27;20065;-81
2023/01/07 09:33:52;;;;;;;1.10;1.00;;;;;;;10.64;100.00;101123.03;5345269;27;20120;-80
2023/01/07 09:36:24;;;;;;;1.75;0.90;;;;;;;10.71;100.00;101113.50;5327614;27;20016;-81
2023/01/07 09:38:55;;;;;;;0.82;0.82;;;;;;;10.72;100.00;101104.53;5342673;27;20030;-81
2023/01/07 09:41:35;;;;;;;1.77;0.90;;;;;;;10.78;100.00;101098.63;5344769;27;20358;-80
2023/01/07 09:44:21;;;;;;;1.00;0.80;;;;;;;10.82;100.00;101091.19;5329674;27;20084;-81
2023/01/07 09:46:55;;;;;;;3.80;1.20;;;;;;;10.88;100.00;101088.00;5328717;27;20038;-80
2023/01/07 09:49:31;;;;;;;2.67;1.02;;;;;;;10.95;100.00;101079.28;5338211;27;20105;-80
2023/01/07 09:52:18;;;;;;;0.75;0.75;;;;;;;11.15;100.00;101082.00;5354328;27;20102;-80
2023/01/07 09:54:55;;;;;;;1.83;0.80;;;;;;;11.29;100.00;101073.53;5353873;27;20027;-79
2023/01/07 09:57:26;;;;;;;1.27;0.80;;;;;;;11.33;100.00;101072.25;5346076;27;20073;-80
2023/01/07 09:59:58;;;;;;;1.83;0.80;;;;;;;11.42;100.00;101067.91;5334770;27;20056;-81
2023/01/07 10:02:37;;;;;;;0.73;0.70;;;;;;;11.48;100.00;101069.16;5341490;27;20028;-81
2023/01/07 10:05:35;;;;;;;1.02;0.75;;;;;;;11.54;100.00;101068.59;5342797;27;20032;-80
2023/01/07 10:08:24;;;;;;;1.15;0.85;;;;;;;11.67;100.00;101055.75;5330064;27;20039;-80
2023/01/07 10:11:20;;;;;;;0.60;0.50;;;;;;;11.63;100.00;101058.88;5328848;27;20371;-81
2023/01/07 10:14:16;;;;;;;2.15;1.02;;;;;;;11.70;100.00;101042.13;5309663;27;20337;-80
2023/01/07 10:17:00;;;;;;;0.68;0.60;;;;;;;11.70;100.00;101034.09;5327880;27;20063;-80
2023/01/07 10:19:59;;;;;;;0.95;0.70;;;;;;;11.89;100.00;101025.19;5339142;27;20527;-80
2023/01/07 10:22:38;;;;;;;1.67;1.02;;;;;;;11.99;100.00;101016.31;5340727;27;20948;-80
2023/01/07 10:25:17;;;;;;;1.15;0.88;;;;;;;11.98;100.00;101017.31;5341841;27;20039;-80
2023/01/07 10:27:51;;;;;;;1.63;0.82;;;;;;;12.02;100.00;101024.03;5340725;27;20032;-80
2023/01/07 10:30:29;;;;;;;1.38;0.90;;;;;;;12.04;100.00;101012.22;5343693;27;20036;-80
2023/01/07 10:33:31;;;;;;;1.98;0.80;;;;;;;12.23;100.00;100997.88;5338401;27;20032;-80
2023/01/07 10:36:17;;;;;;;1.08;0.73;;;;;;;11.99;100.00;101025.19;5322533;27;20048;-80
2023/01/07 10:39:00;;;;;;;0.77;0.70;;;;;;;12.04;100.00;100990.84;5338856;27;20030;-80
2023/01/07 10:41:55;;;;;;;1.98;1.00;;;;;;;12.24;100.00;100983.53;5331288;27;20349;-80
2023/01/07 10:44:52;;;;;;;1.92;1.10;;;;;;;12.24;100.00;100980.03;5337964;27;20476;-80
2023/01/07 10:47:38;;;;;;;2.75;0.90;;;;;;;12.34;100.00;100966.56;5323717;27;20032;-80
2023/01/07 10:50:30;;;;;;;1.17;0.68;;;;;;;12.36;100.00;100972.59;5346050;27;20111;-80
2023/01/07 10:53:15;;;;;;;1.48;0.68;;;;;;;12.40;100.00;100961.47;5331685;27;20117;-80
2023/01/07 10:56:08;;;;;;;2.13;0.80;;;;;;;12.55;100.00;100960.94;5336307;27;20456;-80
2023/01/07 10:58:44;;;;;;;0.85;0.77;;;;;;;12.79;100.00;100954.97;5346360;27;20047;-81
2023/01/07 11:01:26;;;;;;;1.60;0.75;;;;;;;12.78;100.00;100942.56;5341090;27;20023;-81
2023/01/07 11:04:14;;;;;;;1.17;0.80;;;;;;;12.70;100.00;100959.41;5347908;27;20031;-81
2023/01/07 11:06:50;;;;;;;1.83;0.75;;;;;;;12.65;100.00;100954.50;5347379;27;20472;-81
2023/01/07 11:09:44;;;;;;;0.95;0.68;;;;;;;12.82;100.00;100936.78;5341588;27;20027;-81
2023/01/07 11:12:30;;;;;;;0.90;0.70;;;;;;;12.67;100.00;100951.69;5338155;27;20024;-80
2023/01/07 11:15:07;;;;;;;1.27;0.80;;;;;;;12.87;100.00;100936.31;5344238;27;20744;-80
2023/01/07 11:17:45;;;;;;;1.13;1.00;;;;;;;13.00;100.00;100931.38;5337072;27;20038;-81
2023/01/07 11:20:46;;;;;;;0.77;0.77;;;;;;;13.32;100.00;100926.44;5341259;27;20039;-80
2023/01/07 11:23:37;;;;;;;1.30;0.80;;;;;;;13.11;100.00;100919.56;5339073;27;20062;-80
2023/01/07 11:26:44;;;;;;;1.55;0.90;;;;;;;13.36;100.00;100914.44;5333039;27;20122;-80
2023/01/07 11:29:23;;;;;;;0.85;0.50;;;;;;;13.68;100.00;100908.38;5240364;28;20030;-80
2023/01/07 11:31:57;;;;;;;1.45;0.95;;;;;;;14.06;100.00;100898.13;5318805;28;20602;-80
2023/01/07 11:35:05;;;;;;;0.82;0.80;;;;;;;14.14;100.00;100881.19;5343370;27;20115;-80
2023/01/07 11:37:38;;;;;;;1.17;0.80;;;;;;;14.72;100.00;100879.41;5307280;27;20036;-80
2023/01/07 11:40:12;;;;;;;1.17;0.80;;;;;;;14.06;100.00;100871.31;5327327;28;20021;-80
2023/01/07 11:43:21;;;;;;;2.72;0.93;;;;;;;14.15;100.00;100869.47;5326191;27;20032;-80
2023/01/07 11:45:58;;;;;;;1.60;0.93;;;;;;;15.68;100.00;100858.84;5328356;27;20036;-81
2023/01/07 11:48:38;;;;;;;0.68;0.60;;;;;;;16.20;100.00;100882.44;5347660;27;20042;-81
2023/01/07 11:51:09;;;;;;;1.45;0.80;;;;;;;15.51;100.00;100852.69;5347714;27;20074;-81
2023/01/07 11:53:58;;;;;;;0.73;0.73;;;;;;;16.02;100.00;100846.91;5347426;27;20020;-81
2023/01/07 11:56:35;;;;;;;2.05;0.80;;;;;;;16.47;100.00;100845.25;5325694;27;20020;-81
2023/01/07 11:59:12;;;;;;;2.00;1.08;;;;;;;16.72;100.00;100842.31;5346862;27;20384;-81
2023/01/07 12:01:48;;;;;;;1.23;0.88;;;;;;;17.54;100.00;100849.53;5344034;27;20040;-81